RJAA METAR and TAF | Updated Today

RJAA METAR

Narita International Airport

Observation time: 21 min. ago

RJAA 032200Z VRB01KT 9999 FEW020 01/01 Q1011 NOSIG RMK 1CU020 A2986

Need help? Read our tutorial on how to read METARs or read the parsed version below.

Narita International Airport (RJAA) METAR

  • Weather conditions on Fri, 03 Dec 2021 22:00:00 +0000 (21 min. ago):
  • Present conditions: Dry
  • Clouds: A few at 610 meters
  • Visibility: Greater than 10 km
  • Wind: Variable at 1 knots
  • Temperature: 1 celsius
  • Dew point: 1 celsius
  • Pressure: 1011 millibars
  • Remarks: 1CU020 A2986


Useful to know...

RJAA TAF

Narita International Airport

TAF RJAA 031710Z 0318/0500 28004KT 9999 FEW030 BECMG 0409/0412 34010KT
Observation time: 5:11 hr. ago
Need help? Read our tutorial on how to read TAFs or read the parsed version below.

Parsed version of TAF for Narita International Airport (RJAA)

  • From 03 December at 18:00 UTC, to day 05 of the month at 00:00 UTC
  • Clouds: A few at 914 meters
  • Visibility: Greater than 10 km
  • Wind: 280 degrees at 4
  • Expected to arise soon, from 04 December at 09:00 UTC, to day 04 of the month at 12:00 UTC
  • Wind: 340 degrees at 10